sensor_id;sensor_type;location;lat;lon;timestamp;pressure;altitude;pressure_sealevel;temperature;humidity
61568;BME280;47462;59.172;17.196;2022-07-18T00:00:06;101260.72;;;17.50;57.15
61568;BME280;47462;59.172;17.196;2022-07-18T00:02:32;101204.69;;;17.27;57.15
61568;BME280;47462;59.172;17.196;2022-07-18T00:04:57;101259.88;;;17.50;57.20
61568;BME280;47462;59.172;17.196;2022-07-18T00:07:23;101134.75;;;16.82;57.27
61568;BME280;47462;59.172;17.196;2022-07-18T00:09:49;101258.56;;;17.58;57.29
61568;BME280;47462;59.172;17.196;2022-07-18T00:12:15;101262.91;;;17.59;57.64
61568;BME280;47462;59.172;17.196;2022-07-18T00:14:40;101236.56;;;17.40;57.89
61568;BME280;47462;59.172;17.196;2022-07-18T00:17:06;101266.16;;;17.47;57.74
61568;BME280;47462;59.172;17.196;2022-07-18T00:19:31;101263.13;;;17.55;57.72
61568;BME280;47462;59.172;17.196;2022-07-18T00:21:57;101266.22;;;17.45;57.67
61568;BME280;47462;59.172;17.196;2022-07-18T00:24:22;101266.72;;;17.54;57.66
61568;BME280;47462;59.172;17.196;2022-07-18T00:26:48;101262.81;;;17.43;57.69
61568;BME280;47462;59.172;17.196;2022-07-18T00:29:13;101266.88;;;17.51;57.72
61568;BME280;47462;59.172;17.196;2022-07-18T00:31:38;101262.13;;;17.40;57.79
61568;BME280;47462;59.172;17.196;2022-07-18T00:34:04;101268.63;;;17.50;57.69
61568;BME280;47462;59.172;17.196;2022-07-18T00:36:29;101269.97;;;17.41;57.85
61568;BME280;47462;59.172;17.196;2022-07-18T00:38:56;101267.72;;;17.51;57.49
61568;BME280;47462;59.172;17.196;2022-07-18T00:41:22;101266.78;;;17.52;57.25
61568;BME280;47462;59.172;17.196;2022-07-18T00:43:48;101183.91;;;17.02;57.31
61568;BME280;47462;59.172;17.196;2022-07-18T00:46:13;101213.88;;;17.19;57.36
61568;BME280;47462;59.172;17.196;2022-07-18T00:48:40;101259.66;;;17.54;57.72
61568;BME280;47462;59.172;17.196;2022-07-18T00:51:06;101247.69;;;17.47;57.79
61568;BME280;47462;59.172;17.196;2022-07-18T00:53:32;101231.59;;;17.34;57.82
61568;BME280;47462;59.172;17.196;2022-07-18T00:55:57;101260.25;;;17.42;57.71
61568;BME280;47462;59.172;17.196;2022-07-18T00:58:23;101230.75;;;17.34;57.95
61568;BME280;47462;59.172;17.196;2022-07-18T01:00:48;101253.41;;;17.38;57.95
61568;BME280;47462;59.172;17.196;2022-07-18T01:03:32;101208.69;;;17.17;57.90
61568;BME280;47462;59.172;17.196;2022-07-18T01:05:58;101119.81;;;16.64;57.55
61568;BME280;47462;59.172;17.196;2022-07-18T01:08:23;101217.94;;;17.26;57.66
61568;BME280;47462;59.172;17.196;2022-07-18T01:10:49;101253.56;;;17.35;58.02
61568;BME280;47462;59.172;17.196;2022-07-18T01:13:16;101236.94;;;17.33;57.72
61568;BME280;47462;59.172;17.196;2022-07-18T01:15:41;101240.66;;;17.28;57.94
61568;BME280;47462;59.172;17.196;2022-07-18T01:18:07;101232.66;;;17.30;57.86
61568;BME280;47462;59.172;17.196;2022-07-18T01:20:32;101246.09;;;17.25;58.05
61568;BME280;47462;59.172;17.196;2022-07-18T01:22:59;101238.47;;;17.19;58.09
61568;BME280;47462;59.172;17.196;2022-07-18T01:25:25;101243.28;;;17.28;58.39
61568;BME280;47462;59.172;17.196;2022-07-18T01:27:50;101221.38;;;17.09;58.66
61568;BME280;47462;59.172;17.196;2022-07-18T01:30:15;101253.81;;;17.11;58.76
61568;BME280;47462;59.172;17.196;2022-07-18T01:32:42;101256.09;;;17.19;58.91
61568;BME280;47462;59.172;17.196;2022-07-18T01:35:08;101256.94;;;17.19;58.88
61568;BME280;47462;59.172;17.196;2022-07-18T01:37:34;101256.00;;;17.20;58.90
61568;BME280;47462;59.172;17.196;2022-07-18T01:40:01;101212.41;;;16.94;59.05
61568;BME280;47462;59.172;17.196;2022-07-18T01:42:31;101229.41;;;17.06;59.14
61568;BME280;47462;59.172;17.196;2022-07-18T01:44:56;101186.69;;;16.80;59.30
61568;BME280;47462;59.172;17.196;2022-07-18T01:47:22;101253.88;;;17.09;59.55
61568;BME280;47462;59.172;17.196;2022-07-18T01:49:47;101254.28;;;17.19;59.25
61568;BME280;47462;59.172;17.196;2022-07-18T01:52:12;101253.81;;;17.11;59.50
61568;BME280;47462;59.172;17.196;2022-07-18T01:54:39;101232.94;;;17.06;59.52
61568;BME280;47462;59.172;17.196;2022-07-18T01:57:06;101247.94;;;17.23;59.74
61568;BME280;47462;59.172;17.196;2022-07-18T01:59:31;101217.19;;;17.05;59.48
61568;BME280;47462;59.172;17.196;2022-07-18T02:01:57;101254.13;;;17.22;59.71
61568;BME280;47462;59.172;17.196;2022-07-18T02:04:24;101241.75;;;17.24;60.09
61568;BME280;47462;59.172;17.196;2022-07-18T02:07:09;101228.28;;;17.11;60.38
61568;BME280;47462;59.172;17.196;2022-07-18T02:09:36;101218.72;;;17.09;60.41
61568;BME280;47462;59.172;17.196;2022-07-18T02:12:01;101230.00;;;17.13;60.64
61568;BME280;47462;59.172;17.196;2022-07-18T02:14:27;101247.09;;;17.04;60.73
61568;BME280;47462;59.172;17.196;2022-07-18T02:16:52;101249.44;;;17.10;60.73
61568;BME280;47462;59.172;17.196;2022-07-18T02:19:17;101266.63;;;17.00;60.62
61568;BME280;47462;59.172;17.196;2022-07-18T02:21:43;101201.63;;;16.80;60.96
61568;BME280;47462;59.172;17.196;2022-07-18T02:24:08;101242.19;;;16.96;60.93
61568;BME280;47462;59.172;17.196;2022-07-18T02:26:33;101258.72;;;17.00;61.01
61568;BME280;47462;59.172;17.196;2022-07-18T02:29:00;101220.34;;;16.73;61.15
61568;BME280;47462;59.172;17.196;2022-07-18T02:31:25;101260.56;;;16.98;61.33
61568;BME280;47462;59.172;17.196;2022-07-18T02:33:50;101259.28;;;16.87;61.64
61568;BME280;47462;59.172;17.196;2022-07-18T02:36:16;101232.56;;;16.76;61.55
61568;BME280;47462;59.172;17.196;2022-07-18T02:38:41;101262.81;;;16.88;61.75
61568;BME280;47462;59.172;17.196;2022-07-18T02:41:06;101223.72;;;16.77;61.88
61568;BME280;47462;59.172;17.196;2022-07-18T02:43:32;101177.38;;;16.54;61.82
61568;BME280;47462;59.172;17.196;2022-07-18T02:45:58;101248.16;;;17.00;61.86
61568;BME280;47462;59.172;17.196;2022-07-18T02:48:23;101058.25;;;15.90;61.88
61568;BME280;47462;59.172;17.196;2022-07-18T02:50:49;101241.78;;;16.86;62.21
61568;BME280;47462;59.172;17.196;2022-07-18T02:53:14;101250.31;;;16.91;62.27
61568;BME280;47462;59.172;17.196;2022-07-18T02:55:39;101252.44;;;16.83;62.37
61568;BME280;47462;59.172;17.196;2022-07-18T02:58:05;101195.44;;;16.62;62.21
61568;BME280;47462;59.172;17.196;2022-07-18T03:00:31;101249.03;;;17.00;62.14
61568;BME280;47462;59.172;17.196;2022-07-18T03:02:56;101250.19;;;16.94;62.29
61568;BME280;47462;59.172;17.196;2022-07-18T03:05:21;101255.88;;;17.04;62.19
61568;BME280;47462;59.172;17.196;2022-07-18T03:07:47;101247.47;;;16.96;62.20
61568;BME280;47462;59.172;17.196;2022-07-18T03:10:12;101233.38;;;16.97;62.58
61568;BME280;47462;59.172;17.196;2022-07-18T03:12:40;101219.69;;;16.89;62.56
61568;BME280;47462;59.172;17.196;2022-07-18T03:15:06;101228.16;;;16.96;62.71
61568;BME280;47462;59.172;17.196;2022-07-18T03:17:32;101241.63;;;17.08;63.04
61568;BME280;47462;59.172;17.196;2022-07-18T03:19:57;101250.72;;;17.01;63.02
61568;BME280;47462;59.172;17.196;2022-07-18T03:22:22;101244.19;;;17.10;63.28
61568;BME280;47462;59.172;17.196;2022-07-18T03:24:48;101244.41;;;17.05;63.21
61568;BME280;47462;59.172;17.196;2022-07-18T03:27:13;101190.03;;;16.84;63.08
61568;BME280;47462;59.172;17.196;2022-07-18T03:29:38;101211.69;;;17.09;63.31
61568;BME280;47462;59.172;17.196;2022-07-18T03:32:04;101232.91;;;17.25;63.55
61568;BME280;47462;59.172;17.196;2022-07-18T03:34:29;101232.56;;;17.14;63.66
61568;BME280;47462;59.172;17.196;2022-07-18T03:36:55;101195.72;;;16.93;63.79
61568;BME280;47462;59.172;17.196;2022-07-18T03:39:20;101240.63;;;17.11;64.02
61568;BME280;47462;59.172;17.196;2022-07-18T03:41:45;101196.75;;;16.91;64.34
61568;BME280;47462;59.172;17.196;2022-07-18T03:44:11;101240.19;;;17.20;64.54
61568;BME280;47462;59.172;17.196;2022-07-18T03:46:36;101244.97;;;17.12;64.82
61568;BME280;47462;59.172;17.196;2022-07-18T03:49:02;101241.09;;;17.19;64.76
61568;BME280;47462;59.172;17.196;2022-07-18T03:51:28;101231.13;;;17.07;65.23
61568;BME280;47462;59.172;17.196;2022-07-18T03:53:53;101226.09;;;17.02;65.21
61568;BME280;47462;59.172;17.196;2022-07-18T03:56:18;101253.97;;;17.08;65.28
61568;BME280;47462;59.172;17.196;2022-07-18T03:58:44;101255.47;;;17.14;65.50
61568;BME280;47462;59.172;17.196;2022-07-18T04:01:09;101180.41;;;16.64;65.55
61568;BME280;47462;59.172;17.196;2022-07-18T04:03:35;101245.91;;;17.11;65.46
61568;BME280;47462;59.172;17.196;2022-07-18T04:06:00;101253.81;;;17.11;65.83
61568;BME280;47462;59.172;17.196;2022-07-18T04:08:26;101247.81;;;17.26;65.72
61568;BME280;47462;59.172;17.196;2022-07-18T04:10:51;101246.09;;;17.25;65.60
61568;BME280;47462;59.172;17.196;2022-07-18T04:13:17;101207.13;;;17.13;65.69
61568;BME280;47462;59.172;17.196;2022-07-18T04:15:42;101232.75;;;17.28;65.98
61568;BME280;47462;59.172;17.196;2022-07-18T04:18:08;101215.94;;;17.31;65.92
61568;BME280;47462;59.172;17.196;2022-07-18T04:20:33;101241.56;;;17.46;65.88
61568;BME280;47462;59.172;17.196;2022-07-18T04:23:02;101249.63;;;17.61;66.02
61568;BME280;47462;59.172;17.196;2022-07-18T04:25:33;101234.28;;;17.69;66.13
61568;BME280;47462;59.172;17.196;2022-07-18T04:27:59;101194.66;;;17.52;66.29
61568;BME280;47462;59.172;17.196;2022-07-18T04:30:25;101236.94;;;17.69;66.40
61568;BME280;47462;59.172;17.196;2022-07-18T04:32:52;101178.59;;;17.56;66.09
61568;BME280;47462;59.172;17.196;2022-07-18T04:35:17;101230.13;;;18.00;66.02
61568;BME280;47462;59.172;17.196;2022-07-18T04:37:43;101226.56;;;18.01;66.24
61568;BME280;47462;59.172;17.196;2022-07-18T04:40:09;101178.16;;;17.83;66.02
61568;BME280;47462;59.172;17.196;2022-07-18T04:42:36;101238.88;;;18.18;65.87
61568;BME280;47462;59.172;17.196;2022-07-18T04:45:02;101227.84;;;18.10;66.34
61568;BME280;47462;59.172;17.196;2022-07-18T04:47:28;101227.28;;;18.21;66.21
61568;BME280;47462;59.172;17.196;2022-07-18T04:49:53;101230.31;;;18.30;65.91
61568;BME280;47462;59.172;17.196;2022-07-18T04:52:19;101176.09;;;18.23;65.42
61568;BME280;47462;59.172;17.196;2022-07-18T04:54:44;101226.59;;;18.50;65.57
61568;BME280;47462;59.172;17.196;2022-07-18T04:57:10;101195.97;;;18.30;65.48
61568;BME280;47462;59.172;17.196;2022-07-18T04:59:40;101214.72;;;18.42;65.94
61568;BME280;47462;59.172;17.196;2022-07-18T05:02:07;101212.88;;;18.44;65.44
61568;BME280;47462;59.172;17.196;2022-07-18T05:04:33;101226.78;;;18.63;65.67
61568;BME280;47462;59.172;17.196;2022-07-18T05:06:59;101196.78;;;18.48;65.46
61568;BME280;47462;59.172;17.196;2022-07-18T05:09:25;101235.16;;;18.71;65.53
61568;BME280;47462;59.172;17.196;2022-07-18T05:11:51;101193.78;;;18.70;64.99
61568;BME280;47462;59.172;17.196;2022-07-18T05:14:16;101232.88;;;18.97;64.99
61568;BME280;47462;59.172;17.196;2022-07-18T05:16:41;101155.50;;;18.78;64.57
61568;BME280;47462;59.172;17.196;2022-07-18T05:19:06;101233.16;;;19.09;64.33
61568;BME280;47462;59.172;17.196;2022-07-18T05:21:32;101204.03;;;18.77;64.47
61568;BME280;47462;59.172;17.196;2022-07-18T05:23:57;101233.50;;;19.02;64.64
61568;BME280;47462;59.172;17.196;2022-07-18T05:26:22;101227.59;;;19.29;63.68
61568;BME280;47462;59.172;17.196;2022-07-18T05:28:48;101222.28;;;19.29;63.79
61568;BME280;47462;59.172;17.196;2022-07-18T05:31:13;101180.56;;;19.34;63.37
61568;BME280;47462;59.172;17.196;2022-07-18T05:33:38;101205.31;;;19.64;62.81
61568;BME280;47462;59.172;17.196;2022-07-18T05:36:04;101209.38;;;19.85;62.30
61568;BME280;47462;59.172;17.196;2022-07-18T05:38:30;101211.84;;;20.03;62.07
61568;BME280;47462;59.172;17.196;2022-07-18T05:40:55;101211.78;;;20.19;61.59
61568;BME280;47462;59.172;17.196;2022-07-18T05:43:21;101215.28;;;20.34;61.07
61568;BME280;47462;59.172;17.196;2022-07-18T05:45:46;101207.91;;;20.39;60.89
61568;BME280;47462;59.172;17.196;2022-07-18T05:48:11;101217.06;;;20.33;60.79
61568;BME280;47462;59.172;17.196;2022-07-18T05:50:36;101215.38;;;20.18;60.86
61568;BME280;47462;59.172;17.196;2022-07-18T05:53:02;101215.47;;;20.16;60.96
61568;BME280;47462;59.172;17.196;2022-07-18T05:55:27;101215.19;;;20.21;61.01
61568;BME280;47462;59.172;17.196;2022-07-18T05:57:53;101220.47;;;20.21;60.91
61568;BME280;47462;59.172;17.196;2022-07-18T06:00:18;101211.09;;;20.15;61.20
61568;BME280;47462;59.172;17.196;2022-07-18T06:02:44;101213.28;;;20.23;61.15
61568;BME280;47462;59.172;17.196;2022-07-18T06:05:11;101218.94;;;20.17;61.00
61568;BME280;47462;59.172;17.196;2022-07-18T06:07:37;101211.78;;;20.19;61.24
61568;BME280;47462;59.172;17.196;2022-07-18T06:10:02;101216.91;;;20.22;61.07
61568;BME280;47462;59.172;17.196;2022-07-18T06:12:28;101209.50;;;20.12;60.94
61568;BME280;47462;59.172;17.196;2022-07-18T06:14:55;101213.28;;;20.08;61.00
61568;BME280;47462;59.172;17.196;2022-07-18T06:17:21;101217.56;;;20.25;60.89
61568;BME280;47462;59.172;17.196;2022-07-18T06:19:47;101209.97;;;20.34;60.68
61568;BME280;47462;59.172;17.196;2022-07-18T06:22:12;101203.44;;;20.39;60.42
61568;BME280;47462;59.172;17.196;2022-07-18T06:24:37;101207.91;;;20.39;60.44
61568;BME280;47462;59.172;17.196;2022-07-18T06:27:02;101208.75;;;20.39;60.50
61568;BME280;47462;59.172;17.196;2022-07-18T06:29:28;101202.00;;;20.34;60.32
61568;BME280;47462;59.172;17.196;2022-07-18T06:31:53;101206.47;;;20.33;60.69
61568;BME280;47462;59.172;17.196;2022-07-18T06:34:18;101211.22;;;20.42;60.43
61568;BME280;47462;59.172;17.196;2022-07-18T06:36:43;101211.22;;;20.57;60.24
61568;BME280;47462;59.172;17.196;2022-07-18T06:39:09;101214.25;;;20.65;59.86
61568;BME280;47462;59.172;17.196;2022-07-18T06:41:39;101214.50;;;20.75;59.53
61568;BME280;47462;59.172;17.196;2022-07-18T06:44:04;101212.97;;;20.85;59.08
61568;BME280;47462;59.172;17.196;2022-07-18T06:46:30;101218.28;;;20.85;59.22
61568;BME280;47462;59.172;17.196;2022-07-18T06:48:55;101216.81;;;20.66;59.30
61568;BME280;47462;59.172;17.196;2022-07-18T06:51:20;101176.84;;;20.26;59.59
61568;BME280;47462;59.172;17.196;2022-07-18T06:53:46;101220.94;;;20.56;59.30
61568;BME280;47462;59.172;17.196;2022-07-18T06:56:11;101225.97;;;20.61;59.05
61568;BME280;47462;59.172;17.196;2022-07-18T06:58:36;101224.88;;;20.65;59.15
61568;BME280;47462;59.172;17.196;2022-07-18T07:01:01;101220.00;;;20.86;58.94
61568;BME280;47462;59.172;17.196;2022-07-18T07:03:27;101222.31;;;21.05;58.71
61568;BME280;47462;59.172;17.196;2022-07-18T07:05:52;101216.47;;;21.00;58.06
61568;BME280;47462;59.172;17.196;2022-07-18T07:08:17;101220.16;;;20.97;58.39
61568;BME280;47462;59.172;17.196;2022-07-18T07:10:43;101218.00;;;20.90;57.90
61568;BME280;47462;59.172;17.196;2022-07-18T07:13:08;101224.00;;;20.79;57.81
61568;BME280;47462;59.172;17.196;2022-07-18T07:15:33;101224.34;;;20.87;57.87
61568;BME280;47462;59.172;17.196;2022-07-18T07:17:59;101223.09;;;20.93;57.41
61568;BME280;47462;59.172;17.196;2022-07-18T07:20:24;101210.78;;;21.19;57.07
61568;BME280;47462;59.172;17.196;2022-07-18T07:22:54;101210.09;;;21.30;55.40
61568;BME280;47462;59.172;17.196;2022-07-18T07:25:20;101219.03;;;21.29;55.55
61568;BME280;47462;59.172;17.196;2022-07-18T07:27:46;101218.63;;;21.35;55.64
61568;BME280;47462;59.172;17.196;2022-07-18T07:30:12;101220.06;;;21.26;55.20
61568;BME280;47462;59.172;17.196;2022-07-18T07:32:38;101074.03;;;20.46;56.06
61568;BME280;47462;59.172;17.196;2022-07-18T07:35:04;101227.44;;;21.48;54.94
61568;BME280;47462;59.172;17.196;2022-07-18T07:37:31;101228.69;;;21.57;55.48
61568;BME280;47462;59.172;17.196;2022-07-18T07:39:57;101225.50;;;21.65;54.68
61568;BME280;47462;59.172;17.196;2022-07-18T07:42:23;101098.47;;;20.78;54.96
61568;BME280;47462;59.172;17.196;2022-07-18T07:44:48;101232.53;;;21.66;55.01
61568;BME280;47462;59.172;17.196;2022-07-18T07:47:13;101219.56;;;21.61;55.10
61568;BME280;47462;59.172;17.196;2022-07-18T07:49:38;101216.66;;;21.51;54.90
61568;BME280;47462;59.172;17.196;2022-07-18T07:52:04;101204.78;;;21.30;55.24
61568;BME280;47462;59.172;17.196;2022-07-18T07:54:29;101208.63;;;21.26;55.69
61568;BME280;47462;59.172;17.196;2022-07-18T07:56:54;101203.75;;;21.32;55.73
61568;BME280;47462;59.172;17.196;2022-07-18T07:59:20;101212.91;;;21.41;55.42
61568;BME280;47462;59.172;17.196;2022-07-18T08:01:45;101214.38;;;21.45;55.01
61568;BME280;47462;59.172;17.196;2022-07-18T08:04:10;101218.41;;;21.38;55.00
61568;BME280;47462;59.172;17.196;2022-07-18T08:06:35;101215.50;;;21.55;54.79
61568;BME280;47462;59.172;17.196;2022-07-18T08:09:01;101206.75;;;21.81;54.66
61568;BME280;47462;59.172;17.196;2022-07-18T08:11:26;101214.59;;;22.08;54.14
61568;BME280;47462;59.172;17.196;2022-07-18T08:13:51;101209.53;;;22.31;53.29
61568;BME280;47462;59.172;17.196;2022-07-18T08:16:17;101213.09;;;22.30;53.45
61568;BME280;47462;59.172;17.196;2022-07-18T08:18:42;101210.25;;;22.33;53.57
61568;BME280;47462;59.172;17.196;2022-07-18T08:21:07;101210.91;;;22.36;52.87
61568;BME280;47462;59.172;17.196;2022-07-18T08:23:32;101213.31;;;22.26;52.53
61568;BME280;47462;59.172;17.196;2022-07-18T08:25:58;101208.13;;;22.51;52.37
61568;BME280;47462;59.172;17.196;2022-07-18T08:28:23;101208.91;;;22.77;51.46
61568;BME280;47462;59.172;17.196;2022-07-18T08:30:49;101211.00;;;22.85;51.45
61568;BME280;47462;59.172;17.196;2022-07-18T08:33:15;101194.16;;;22.97;50.98
61568;BME280;47462;59.172;17.196;2022-07-18T08:35:40;101187.22;;;23.31;50.16
61568;BME280;47462;59.172;17.196;2022-07-18T08:38:05;101173.00;;;23.55;49.64
61568;BME280;47462;59.172;17.196;2022-07-18T08:40:31;101178.50;;;23.76;49.29
61568;BME280;47462;59.172;17.196;2022-07-18T08:42:56;101190.78;;;23.90;49.25
61568;BME280;47462;59.172;17.196;2022-07-18T08:45:23;101192.22;;;23.83;48.70
61568;BME280;47462;59.172;17.196;2022-07-18T08:47:49;101190.69;;;23.56;48.31
61568;BME280;47462;59.172;17.196;2022-07-18T08:50:16;101192.44;;;23.44;49.02
61568;BME280;47462;59.172;17.196;2022-07-18T08:52:42;101193.03;;;23.37;48.86
61568;BME280;47462;59.172;17.196;2022-07-18T08:55:08;101190.38;;;23.37;49.15
61568;BME280;47462;59.172;17.196;2022-07-18T08:57:34;101188.59;;;23.48;49.04
61568;BME280;47462;59.172;17.196;2022-07-18T09:00:04;101195.06;;;23.68;48.40
61568;BME280;47462;59.172;17.196;2022-07-18T09:02:31;101190.75;;;23.79;48.21
61568;BME280;47462;59.172;17.196;2022-07-18T09:04:57;101197.00;;;24.02;47.69
61568;BME280;47462;59.172;17.196;2022-07-18T09:07:26;101194.22;;;24.49;46.89
61568;BME280;47462;59.172;17.196;2022-07-18T09:10:02;101193.72;;;24.55;45.13
61568;BME280;47462;59.172;17.196;2022-07-18T09:12:29;101186.22;;;24.37;45.38
61568;BME280;47462;59.172;17.196;2022-07-18T09:14:56;101185.47;;;24.69;45.79
61568;BME280;47462;59.172;17.196;2022-07-18T09:17:26;101186.19;;;24.71;45.60
61568;BME280;47462;59.172;17.196;2022-07-18T09:20:07;101180.88;;;24.60;45.11
61568;BME280;47462;59.172;17.196;2022-07-18T09:22:37;101181.72;;;24.49;45.37
61568;BME280;47462;59.172;17.196;2022-07-18T09:27:36;101185.97;;;24.40;46.12
61568;BME280;47462;59.172;17.196;2022-07-18T09:32:46;101178.72;;;24.20;46.08
61568;BME280;47462;59.172;17.196;2022-07-18T09:35:16;101185.72;;;24.10;45.95
61568;BME280;47462;59.172;17.196;2022-07-18T09:40:20;101184.03;;;23.97;45.74
61568;BME280;47462;59.172;17.196;2022-07-18T09:42:50;101192.13;;;23.96;46.04
61568;BME280;47462;59.172;17.196;2022-07-18T09:45:15;101185.91;;;23.84;45.63
61568;BME280;47462;59.172;17.196;2022-07-18T09:47:52;101192.69;;;23.41;44.89
61568;BME280;47462;59.172;17.196;2022-07-18T09:50:22;101200.03;;;23.26;45.67
61568;BME280;47462;59.172;17.196;2022-07-18T09:52:57;101202.41;;;23.18;45.49
61568;BME280;47462;59.172;17.196;2022-07-18T09:55:23;101208.97;;;23.25;45.56
61568;BME280;47462;59.172;17.196;2022-07-18T09:58:02;101199.81;;;23.29;45.53
61568;BME280;47462;59.172;17.196;2022-07-18T10:00:28;101196.63;;;23.24;45.19
61568;BME280;47462;59.172;17.196;2022-07-18T10:02:55;101206.31;;;23.25;44.94
61568;BME280;47462;59.172;17.196;2022-07-18T10:05:21;101198.44;;;23.24;44.59
61568;BME280;47462;59.172;17.196;2022-07-18T10:07:46;101196.50;;;23.26;44.29
61568;BME280;47462;59.172;17.196;2022-07-18T10:10:13;101190.38;;;23.37;44.28
61568;BME280;47462;59.172;17.196;2022-07-18T10:12:40;101190.38;;;23.37;44.41
61568;BME280;47462;59.172;17.196;2022-07-18T10:15:06;101182.09;;;23.64;44.07
61568;BME280;47462;59.172;17.196;2022-07-18T10:17:31;101189.00;;;24.13;43.57
61568;BME280;47462;59.172;17.196;2022-07-18T10:20:02;101176.75;;;24.33;43.13
61568;BME280;47462;59.172;17.196;2022-07-18T10:22:27;101185.97;;;24.40;43.13
61568;BME280;47462;59.172;17.196;2022-07-18T10:24:52;101184.75;;;24.33;42.87
61568;BME280;47462;59.172;17.196;2022-07-18T10:27:19;101185.75;;;24.32;42.73
61568;BME280;47462;59.172;17.196;2022-07-18T10:32:32;101182.09;;;24.22;43.24
61568;BME280;47462;59.172;17.196;2022-07-18T10:34:58;101177.72;;;24.21;43.85
61568;BME280;47462;59.172;17.196;2022-07-18T10:37:24;101184.63;;;24.24;43.83
61568;BME280;47462;59.172;17.196;2022-07-18T10:39:49;101186.59;;;24.21;44.11
61568;BME280;47462;59.172;17.196;2022-07-18T10:42:15;101172.03;;;24.26;44.15
61568;BME280;47462;59.172;17.196;2022-07-18T10:44:42;101020.81;;;23.37;43.79
61568;BME280;47462;59.172;17.196;2022-07-18T10:47:11;101188.16;;;24.35;43.75
61568;BME280;47462;59.172;17.196;2022-07-18T10:57:36;101159.66;;;24.36;42.94
61568;BME280;47462;59.172;17.196;2022-07-18T11:02:38;101162.81;;;24.30;43.54
61568;BME280;47462;59.172;17.196;2022-07-18T11:05:51;101159.91;;;24.33;44.38
61568;BME280;47462;59.172;17.196;2022-07-18T11:15:54;101163.06;;;24.27;43.97
61568;BME280;47462;59.172;17.196;2022-07-18T11:18:20;101163.78;;;24.40;43.87
61568;BME280;47462;59.172;17.196;2022-07-18T11:20:45;100992.09;;;23.29;43.41
61568;BME280;47462;59.172;17.196;2022-07-18T11:23:21;101157.84;;;24.36;44.23
61568;BME280;47462;59.172;17.196;2022-07-18T11:25:47;101159.53;;;24.49;44.39
61568;BME280;47462;59.172;17.196;2022-07-18T11:28:13;101156.88;;;24.49;43.97
61568;BME280;47462;59.172;17.196;2022-07-18T11:30:38;101151.28;;;24.52;44.07
61568;BME280;47462;59.172;17.196;2022-07-18T11:33:04;101152.63;;;24.46;44.13
61568;BME280;47462;59.172;17.196;2022-07-18T11:35:30;101153.22;;;24.50;44.10
61568;BME280;47462;59.172;17.196;2022-07-18T11:37:55;101148.38;;;24.55;44.24
61568;BME280;47462;59.172;17.196;2022-07-18T11:40:21;101154.41;;;24.68;43.66
61568;BME280;47462;59.172;17.196;2022-07-18T11:42:47;101148.13;;;24.69;43.68
61568;BME280;47462;59.172;17.196;2022-07-18T11:45:13;101141.53;;;24.85;43.50
61568;BME280;47462;59.172;17.196;2022-07-18T11:47:45;101141.09;;;25.01;43.34
61568;BME280;47462;59.172;17.196;2022-07-18T11:50:10;101137.75;;;25.20;43.27
61568;BME280;47462;59.172;17.196;2022-07-18T11:52:36;101118.31;;;25.29;43.36
61568;BME280;47462;59.172;17.196;2022-07-18T11:55:01;101126.53;;;25.26;42.29
61568;BME280;47462;59.172;17.196;2022-07-18T11:57:29;101131.31;;;25.43;42.35
61568;BME280;47462;59.172;17.196;2022-07-18T11:59:54;101122.59;;;25.41;41.93
61568;BME280;47462;59.172;17.196;2022-07-18T12:02:20;101135.91;;;25.32;42.44
61568;BME280;47462;59.172;17.196;2022-07-18T12:04:45;101133.81;;;25.35;42.33
61568;BME280;47462;59.172;17.196;2022-07-18T12:09:39;101132.19;;;25.44;42.16
61568;BME280;47462;59.172;17.196;2022-07-18T12:12:08;101144.75;;;25.32;42.46
61568;BME280;47462;59.172;17.196;2022-07-18T12:14:34;101131.69;;;25.18;42.84
61568;BME280;47462;59.172;17.196;2022-07-18T12:16:59;101135.97;;;25.09;42.69
61568;BME280;47462;59.172;17.196;2022-07-18T12:19:32;101133.19;;;24.99;43.00
61568;BME280;47462;59.172;17.196;2022-07-18T12:32:24;101117.19;;;26.55;40.18
61568;BME280;47462;59.172;17.196;2022-07-18T12:34:56;101117.19;;;26.45;39.48
61568;BME280;47462;59.172;17.196;2022-07-18T12:37:22;101119.16;;;26.43;39.57
61568;BME280;47462;59.172;17.196;2022-07-18T12:39:48;101119.56;;;26.48;39.17
61568;BME280;47462;59.172;17.196;2022-07-18T12:42:41;101126.97;;;26.25;39.04
61568;BME280;47462;59.172;17.196;2022-07-18T12:45:06;101125.28;;;25.93;39.19
61568;BME280;47462;59.172;17.196;2022-07-18T12:47:32;101118.56;;;25.68;39.64
61568;BME280;47462;59.172;17.196;2022-07-18T12:49:57;101114.25;;;25.56;40.09
61568;BME280;47462;59.172;17.196;2022-07-18T12:52:23;101112.75;;;25.42;40.04
61568;BME280;47462;59.172;17.196;2022-07-18T12:54:49;101118.78;;;25.65;39.92
61568;BME280;47462;59.172;17.196;2022-07-18T12:57:15;101106.44;;;25.95;39.81
61568;BME280;47462;59.172;17.196;2022-07-18T12:59:40;101108.81;;;26.19;39.04
61568;BME280;47462;59.172;17.196;2022-07-18T13:02:06;101117.94;;;26.16;39.35
61568;BME280;47462;59.172;17.196;2022-07-18T13:04:31;101118.16;;;26.44;39.71
61568;BME280;47462;59.172;17.196;2022-07-18T13:06:56;101101.44;;;26.81;39.30
61568;BME280;47462;59.172;17.196;2022-07-18T13:09:22;101112.03;;;26.93;39.05
61568;BME280;47462;59.172;17.196;2022-07-18T13:11:47;101111.88;;;26.84;38.51
61568;BME280;47462;59.172;17.196;2022-07-18T13:14:16;101105.00;;;26.82;38.96
61568;BME280;47462;59.172;17.196;2022-07-18T13:16:42;101100.88;;;27.07;39.13